createdAt,value
2018-06-07T00:00:11.864Z,16.65
2018-06-07T00:05:15.357Z,16.13
2018-06-07T00:10:18.776Z,15.72
2018-06-07T00:15:22.319Z,15.30
2018-06-07T00:20:28.846Z,15.55
2018-06-07T00:25:32.257Z,16.97
2018-06-07T00:30:35.856Z,17.40
2018-06-07T00:35:44.840Z,17.50
2018-06-07T00:40:48.331Z,17.80
2018-06-07T00:45:51.919Z,18.00
2018-06-07T00:50:55.406Z,17.30
2018-06-07T00:55:58.835Z,16.87
2018-06-07T01:01:02.800Z,16.55
2018-06-07T01:06:07.266Z,16.93
2018-06-07T01:11:10.738Z,15.60
2018-06-07T01:16:14.209Z,17.52
2018-06-07T01:21:17.571Z,17.30
2018-06-07T01:26:22.318Z,15.40
2018-06-07T01:31:32.115Z,17.70
2018-06-07T01:36:35.504Z,17.00
2018-06-07T01:41:38.899Z,18.55
2018-06-07T01:46:42.284Z,18.00
2018-06-07T01:51:46.711Z,19.32
2018-06-07T01:56:50.027Z,17.92
2018-06-07T02:01:53.356Z,19.87
2018-06-07T02:06:56.719Z,19.00
2018-06-07T02:12:00.159Z,17.27
2018-06-07T02:17:03.283Z,18.20
2018-06-07T02:22:08.519Z,20.20
2018-06-07T02:27:11.971Z,19.27
2018-06-07T02:32:15.482Z,20.40
2018-06-07T02:37:18.950Z,19.50
2018-06-07T02:42:22.425Z,21.02
2018-06-07T02:47:25.930Z,20.23
2018-06-07T02:52:29.445Z,19.40
2018-06-07T02:57:32.989Z,17.90
2018-06-07T03:02:36.451Z,20.80
2018-06-07T03:07:39.900Z,20.80
2018-06-07T03:12:43.420Z,21.82
2018-06-07T03:17:46.896Z,21.20
2018-06-07T03:22:50.345Z,20.50
2018-06-07T03:27:53.854Z,19.50
2018-06-07T03:32:57.348Z,20.80
2018-06-07T03:38:00.794Z,20.45
2018-06-07T03:43:04.212Z,21.57
2018-06-07T03:48:07.631Z,20.77
2018-06-07T03:53:11.109Z,19.47
2018-06-07T03:58:15.615Z,21.40
2018-06-07T04:03:19.000Z,20.03
2018-06-07T04:08:22.578Z,17.98
2018-06-07T04:13:26.029Z,19.90
2018-06-07T04:18:29.489Z,21.12
2018-06-07T04:23:32.947Z,18.50
2018-06-07T04:28:37.609Z,20.60
2018-06-07T04:33:43.183Z,17.80
2018-06-07T04:38:46.681Z,20.02
2018-06-07T04:43:53.595Z,18.40
2018-06-07T04:49:00.625Z,18.90
2018-06-07T04:54:04.149Z,19.32
2018-06-07T04:59:07.358Z,19.40
2018-06-07T05:04:10.779Z,17.23
2018-06-07T05:09:14.223Z,17.80
2018-06-07T05:14:17.675Z,17.87
2018-06-07T05:19:22.114Z,17.10
2018-06-07T05:24:25.527Z,18.60
2018-06-07T05:29:28.926Z,16.85
2018-06-07T05:34:33.078Z,17.37
2018-06-07T05:39:36.514Z,19.47
2018-06-07T05:44:39.918Z,18.98
2018-06-07T05:49:45.351Z,18.87
2018-06-07T05:54:49.796Z,18.05
2018-06-07T05:59:53.208Z,17.87
2018-06-07T06:04:56.631Z,16.73
2018-06-07T06:10:00.085Z,16.00
2018-06-07T06:15:03.648Z,16.13
2018-06-07T06:20:08.271Z,17.00
2018-06-07T06:25:13.732Z,17.15
2018-06-07T06:30:17.153Z,16.53
2018-06-07T06:35:20.678Z,17.20
2018-06-07T06:40:24.105Z,17.50
2018-06-07T06:45:34.889Z,15.03
2018-06-07T06:50:38.343Z,14.00
2018-06-07T06:55:41.745Z,17.35
2018-06-07T07:00:45.149Z,16.70
2018-06-07T07:05:48.578Z,17.60
2018-06-07T07:10:52.046Z,16.00
2018-06-07T07:15:55.510Z,16.97
2018-06-07T07:20:58.931Z,16.57
2018-06-07T07:26:02.341Z,15.53
2018-06-07T07:31:05.412Z,15.45
2018-06-07T07:36:08.843Z,15.48
2018-06-07T07:41:12.274Z,17.45
2018-06-07T07:46:15.653Z,14.60
2018-06-07T07:51:21.147Z,14.53
2018-06-07T07:56:24.550Z,14.45
2018-06-07T08:01:28.097Z,14.68
2018-06-07T08:06:31.631Z,15.10
2018-06-07T08:11:35.066Z,14.15
2018-06-07T08:16:42.183Z,14.78
2018-06-07T08:21:45.646Z,15.40
2018-06-07T08:26:49.751Z,14.83
2018-06-07T08:31:53.189Z,15.40
2018-06-07T08:36:56.503Z,14.47
2018-06-07T08:41:59.879Z,14.83
2018-06-07T08:47:03.312Z,15.50
2018-06-07T08:52:06.649Z,15.60
2018-06-07T08:57:09.987Z,15.30
2018-06-07T09:02:13.390Z,15.17
2018-06-07T09:07:16.829Z,15.58
2018-06-07T09:12:21.359Z,14.90
2018-06-07T09:17:24.847Z,15.18
2018-06-07T09:22:28.358Z,15.75
2018-06-07T09:27:31.741Z,14.97
2018-06-07T09:32:36.122Z,16.12
2018-06-07T09:37:39.527Z,16.35
2018-06-07T09:42:43.177Z,15.37
2018-06-07T09:47:46.803Z,16.53
2018-06-07T09:52:51.114Z,15.15
2018-06-07T09:57:54.507Z,15.85
2018-06-07T10:02:57.637Z,15.53
2018-06-07T10:08:01.091Z,14.53
2018-06-07T10:13:04.552Z,16.30
2018-06-07T10:18:07.907Z,17.45
2018-06-07T10:23:11.258Z,18.32
2018-06-07T10:28:18.393Z,17.50
2018-06-07T10:33:21.741Z,16.30
2018-06-07T10:38:25.126Z,15.53
2018-06-07T10:43:31.782Z,17.50
2018-06-07T10:48:35.152Z,17.12
2018-06-07T10:53:38.529Z,16.00
2018-06-07T10:58:47.341Z,17.23
2018-06-07T11:03:50.682Z,17.17
2018-06-07T11:08:54.136Z,16.97
2018-06-07T11:13:57.470Z,15.98
2018-06-07T11:19:01.953Z,15.27
2018-06-07T11:24:08.017Z,16.42
2018-06-07T11:29:15.708Z,15.78
2018-06-07T11:34:21.213Z,15.75
2018-06-07T11:39:30.750Z,15.08
2018-06-07T11:44:34.275Z,15.23
2018-06-07T11:49:37.806Z,15.17
2018-06-07T11:54:41.224Z,14.80
2018-06-07T11:59:44.552Z,16.00
2018-06-07T12:04:53.526Z,14.90
2018-06-07T12:10:02.613Z,15.28
2018-06-07T12:15:09.322Z,15.30
2018-06-07T12:20:12.656Z,13.98
2018-06-07T12:25:19.439Z,12.78
2018-06-07T12:30:22.776Z,20.25
2018-06-07T12:35:26.149Z,11.10
2018-06-07T12:40:29.644Z,13.32
2018-06-07T12:45:33.925Z,13.40
2018-06-07T12:50:41.523Z,13.90
2018-06-07T12:55:45.782Z,13.78
2018-06-07T13:00:49.403Z,13.95
2018-06-07T13:05:52.892Z,12.75
2018-06-07T13:10:57.349Z,11.35
2018-06-07T13:16:00.734Z,10.68
2018-06-07T13:21:04.198Z,10.25
2018-06-07T13:26:09.954Z,12.20
2018-06-07T13:31:13.327Z,11.27
2018-06-07T13:36:16.674Z,11.67
2018-06-07T13:41:20.160Z,11.50
2018-06-07T13:46:23.599Z,12.00
2018-06-07T13:51:26.976Z,12.30
2018-06-07T13:56:31.285Z,11.30
2018-06-07T14:01:38.046Z,12.00
2018-06-07T14:06:41.399Z,12.50
2018-06-07T14:11:46.837Z,12.07
2018-06-07T14:16:51.257Z,11.80
2018-06-07T14:21:56.768Z,10.32
2018-06-07T14:27:00.247Z,10.70
2018-06-07T14:32:04.710Z,10.82
2018-06-07T14:37:09.183Z,11.35
2018-06-07T14:42:16.063Z,10.75
2018-06-07T14:47:19.559Z,11.03
2018-06-07T14:52:23.039Z,10.20
2018-06-07T14:57:26.435Z,10.30
2018-06-07T15:02:29.856Z,10.80
2018-06-07T15:07:33.271Z,10.30
2018-06-07T15:12:36.772Z,11.28
2018-06-07T15:17:40.227Z,12.88
2018-06-07T15:22:47.588Z,11.33
2018-06-07T15:27:51.016Z,11.50
2018-06-07T15:32:54.726Z,9.00
2018-06-07T15:37:58.648Z,9.60
2018-06-07T15:43:02.193Z,10.40
2018-06-07T15:48:05.695Z,10.90
2018-06-07T15:53:09.647Z,10.70
2018-06-07T15:58:13.440Z,10.28
2018-06-07T16:03:17.027Z,10.00
2018-06-07T16:08:22.947Z,10.60
2018-06-07T16:13:26.574Z,10.50
2018-06-07T16:18:29.986Z,9.80
2018-06-07T16:23:33.553Z,10.63
2018-06-07T16:28:40.067Z,9.97
2018-06-07T16:33:48.539Z,10.80
2018-06-07T16:38:52.100Z,9.60
2018-06-07T16:43:55.647Z,10.40
2018-06-07T16:48:59.038Z,12.30
2018-06-07T16:54:02.512Z,10.60
2018-06-07T16:59:12.107Z,12.27
2018-06-07T17:04:16.906Z,13.30
2018-06-07T17:09:20.732Z,12.07
2018-06-07T17:14:24.353Z,12.90
2018-06-07T17:19:29.062Z,12.43
2018-06-07T17:24:36.005Z,13.27
2018-06-07T17:29:44.923Z,12.75
2018-06-07T17:34:49.627Z,12.43
2018-06-07T17:39:53.389Z,13.08
2018-06-07T17:44:58.110Z,12.20
2018-06-07T17:50:01.592Z,13.25
2018-06-07T17:55:05.238Z,13.25
2018-06-07T18:00:08.804Z,13.65
2018-06-07T18:05:13.288Z,15.40
2018-06-07T18:10:17.815Z,14.50
2018-06-07T18:15:21.310Z,15.98
2018-06-07T18:20:24.823Z,15.00
2018-06-07T18:25:28.178Z,16.02
2018-06-07T18:30:35.060Z,17.52
2018-06-07T18:35:38.562Z,17.23
2018-06-07T18:40:41.995Z,18.37
2018-06-07T18:45:45.460Z,16.35
2018-06-07T18:50:48.918Z,17.57
2018-06-07T18:55:52.398Z,16.50
2018-06-07T19:00:55.807Z,16.30
2018-06-07T19:05:59.344Z,16.40
2018-06-07T19:11:02.843Z,16.80
2018-06-07T19:16:10.710Z,18.73
2018-06-07T19:21:20.105Z,17.90
2018-06-07T19:27:31.658Z,19.70
2018-06-07T19:33:42.658Z,19.30
2018-06-07T19:38:51.396Z,16.10
2018-06-07T19:43:54.813Z,17.80
2018-06-07T19:48:58.247Z,21.90
2018-06-07T19:54:02.024Z,23.35
2018-06-07T19:59:05.491Z,20.57
2018-06-07T20:04:08.919Z,20.68
2018-06-07T20:09:12.374Z,21.00
2018-06-07T20:14:16.325Z,19.80
2018-06-07T20:19:19.902Z,22.77
2018-06-07T20:24:23.296Z,20.43
2018-06-07T20:29:26.795Z,19.52
2018-06-07T20:34:31.227Z,20.43
2018-06-07T20:39:34.639Z,20.25
2018-06-07T20:44:39.012Z,21.12
2018-06-07T20:49:42.412Z,23.70
2018-06-07T20:54:46.888Z,20.40
2018-06-07T20:59:56.005Z,23.05
2018-06-07T21:04:59.434Z,22.67
2018-06-07T21:10:04.334Z,24.37
2018-06-07T21:15:07.895Z,22.27
2018-06-07T21:20:11.582Z,22.53
2018-06-07T21:25:16.062Z,22.15
2018-06-07T21:30:20.124Z,24.30
2018-06-07T21:35:24.170Z,23.10
2018-06-07T21:40:31.017Z,22.65
2018-06-07T21:45:34.880Z,21.10
2018-06-07T21:50:40.248Z,21.82
2018-06-07T21:55:44.454Z,20.60
2018-06-07T22:00:47.922Z,19.92
2018-06-07T22:05:51.366Z,20.57
2018-06-07T22:10:54.783Z,20.00
2018-06-07T22:15:58.152Z,20.90
2018-06-07T22:21:01.531Z,22.00
2018-06-07T22:26:05.018Z,22.90
2018-06-07T22:31:08.346Z,21.75
2018-06-07T22:36:13.503Z,22.13
2018-06-07T22:41:17.116Z,19.73
2018-06-07T22:46:21.639Z,21.60
2018-06-07T22:51:25.119Z,23.30
2018-06-07T22:56:28.554Z,24.30
2018-06-07T23:01:31.914Z,26.30
2018-06-07T23:06:35.405Z,23.63
2018-06-07T23:11:38.814Z,22.82
2018-06-07T23:16:42.193Z,24.82
2018-06-07T23:21:45.683Z,22.33
2018-06-07T23:26:52.846Z,20.80
2018-06-07T23:31:56.506Z,21.55
2018-06-07T23:36:59.983Z,22.40
2018-06-07T23:42:05.906Z,23.55
2018-06-07T23:47:09.443Z,21.75
2018-06-07T23:52:12.950Z,22.02
2018-06-07T23:57:16.547Z,22.30
